sensor_id;sensor_type;location;lat;lon;timestamp;P1;durP1;ratioP1;P2;durP2;ratioP2
7929;SDS011;4010;42.698;23.124;2024-03-22T00:01:54;16.50;;;7.50;;
7929;SDS011;4010;42.698;23.124;2024-03-22T00:04:22;12.60;;;7.17;;
7929;SDS011;4010;42.698;23.124;2024-03-22T00:06:49;8.63;;;5.73;;
7929;SDS011;4010;42.698;23.124;2024-03-22T00:09:15;6.37;;;4.07;;
7929;SDS011;4010;42.698;23.124;2024-03-22T00:11:43;7.00;;;3.83;;
7929;SDS011;4010;42.698;23.124;2024-03-22T00:14:09;7.80;;;4.97;;
7929;SDS011;4010;42.698;23.124;2024-03-22T00:16:38;6.93;;;4.03;;
7929;SDS011;4010;42.698;23.124;2024-03-22T00:19:04;5.20;;;3.43;;
7929;SDS011;4010;42.698;23.124;2024-03-22T00:21:31;7.63;;;3.83;;
7929;SDS011;4010;42.698;23.124;2024-03-22T00:23:56;4.87;;;3.40;;
7929;SDS011;4010;42.698;23.124;2024-03-22T00:26:23;6.27;;;3.77;;
7929;SDS011;4010;42.698;23.124;2024-03-22T00:28:50;5.07;;;4.10;;
7929;SDS011;4010;42.698;23.124;2024-03-22T00:31:17;6.10;;;3.93;;
7929;SDS011;4010;42.698;23.124;2024-03-22T00:33:44;7.73;;;3.67;;
7929;SDS011;4010;42.698;23.124;2024-03-22T00:36:11;7.83;;;4.37;;
7929;SDS011;4010;42.698;23.124;2024-03-22T00:38:37;6.93;;;4.70;;
7929;SDS011;4010;42.698;23.124;2024-03-22T00:41:03;7.57;;;4.27;;
7929;SDS011;4010;42.698;23.124;2024-03-22T00:43:29;3.87;;;3.07;;
7929;SDS011;4010;42.698;23.124;2024-03-22T00:45:56;5.30;;;3.20;;
7929;SDS011;4010;42.698;23.124;2024-03-22T00:48:21;5.87;;;3.00;;
7929;SDS011;4010;42.698;23.124;2024-03-22T00:50:49;4.30;;;3.37;;
7929;SDS011;4010;42.698;23.124;2024-03-22T00:53:15;3.47;;;2.83;;
7929;SDS011;4010;42.698;23.124;2024-03-22T00:55:42;5.73;;;3.77;;
7929;SDS011;4010;42.698;23.124;2024-03-22T00:58:09;6.50;;;3.27;;
7929;SDS011;4010;42.698;23.124;2024-03-22T01:00:36;6.50;;;4.40;;
7929;SDS011;4010;42.698;23.124;2024-03-22T01:03:03;4.37;;;3.43;;
7929;SDS011;4010;42.698;23.124;2024-03-22T01:05:30;6.10;;;3.10;;
7929;SDS011;4010;42.698;23.124;2024-03-22T01:07:57;5.07;;;3.00;;
7929;SDS011;4010;42.698;23.124;2024-03-22T01:10:24;5.90;;;2.80;;
7929;SDS011;4010;42.698;23.124;2024-03-22T01:12:50;6.57;;;2.83;;
7929;SDS011;4010;42.698;23.124;2024-03-22T01:15:16;3.43;;;2.80;;
7929;SDS011;4010;42.698;23.124;2024-03-22T01:17:42;6.03;;;2.97;;
7929;SDS011;4010;42.698;23.124;2024-03-22T01:20:09;4.43;;;2.70;;
7929;SDS011;4010;42.698;23.124;2024-03-22T01:22:35;4.60;;;3.10;;
7929;SDS011;4010;42.698;23.124;2024-03-22T01:25:04;5.47;;;2.77;;
7929;SDS011;4010;42.698;23.124;2024-03-22T01:27:30;3.20;;;2.57;;
7929;SDS011;4010;42.698;23.124;2024-03-22T01:29:57;4.87;;;3.20;;
7929;SDS011;4010;42.698;23.124;2024-03-22T01:32:22;5.80;;;3.50;;
7929;SDS011;4010;42.698;23.124;2024-03-22T01:34:49;5.17;;;3.23;;
7929;SDS011;4010;42.698;23.124;2024-03-22T01:37:15;3.97;;;3.10;;
7929;SDS011;4010;42.698;23.124;2024-03-22T01:39:41;5.53;;;3.30;;
7929;SDS011;4010;42.698;23.124;2024-03-22T01:42:08;5.37;;;3.07;;
7929;SDS011;4010;42.698;23.124;2024-03-22T01:44:35;6.10;;;2.60;;
7929;SDS011;4010;42.698;23.124;2024-03-22T01:47:01;3.50;;;2.67;;
7929;SDS011;4010;42.698;23.124;2024-03-22T01:49:29;4.70;;;2.80;;
7929;SDS011;4010;42.698;23.124;2024-03-22T01:51:55;6.07;;;2.80;;
7929;SDS011;4010;42.698;23.124;2024-03-22T01:54:22;5.27;;;2.90;;
7929;SDS011;4010;42.698;23.124;2024-03-22T01:56:47;4.77;;;3.17;;
7929;SDS011;4010;42.698;23.124;2024-03-22T01:59:16;3.10;;;2.80;;
7929;SDS011;4010;42.698;23.124;2024-03-22T02:01:42;4.20;;;2.93;;
7929;SDS011;4010;42.698;23.124;2024-03-22T02:04:09;3.70;;;3.10;;
7929;SDS011;4010;42.698;23.124;2024-03-22T02:06:35;3.77;;;2.70;;
7929;SDS011;4010;42.698;23.124;2024-03-22T02:09:02;4.70;;;2.90;;
7929;SDS011;4010;42.698;23.124;2024-03-22T02:11:29;4.57;;;2.97;;
7929;SDS011;4010;42.698;23.124;2024-03-22T02:13:56;5.10;;;3.37;;
7929;SDS011;4010;42.698;23.124;2024-03-22T02:16:24;5.43;;;2.93;;
7929;SDS011;4010;42.698;23.124;2024-03-22T02:18:50;5.40;;;3.43;;
7929;SDS011;4010;42.698;23.124;2024-03-22T02:21:16;4.37;;;3.07;;
7929;SDS011;4010;42.698;23.124;2024-03-22T02:23:44;5.53;;;3.13;;
7929;SDS011;4010;42.698;23.124;2024-03-22T02:26:10;6.13;;;3.03;;
7929;SDS011;4010;42.698;23.124;2024-03-22T02:28:36;6.53;;;2.90;;
7929;SDS011;4010;42.698;23.124;2024-03-22T02:31:02;4.23;;;2.57;;
7929;SDS011;4010;42.698;23.124;2024-03-22T02:33:30;5.00;;;3.10;;
7929;SDS011;4010;42.698;23.124;2024-03-22T02:35:56;4.30;;;3.03;;
7929;SDS011;4010;42.698;23.124;2024-03-22T02:38:22;4.13;;;2.80;;
7929;SDS011;4010;42.698;23.124;2024-03-22T02:40:51;5.13;;;3.10;;
7929;SDS011;4010;42.698;23.124;2024-03-22T02:43:18;3.77;;;2.87;;
7929;SDS011;4010;42.698;23.124;2024-03-22T02:45:46;4.03;;;2.60;;
7929;SDS011;4010;42.698;23.124;2024-03-22T02:48:13;3.50;;;2.60;;
7929;SDS011;4010;42.698;23.124;2024-03-22T02:50:38;5.23;;;2.63;;
7929;SDS011;4010;42.698;23.124;2024-03-22T02:53:05;4.10;;;2.60;;
7929;SDS011;4010;42.698;23.124;2024-03-22T02:55:35;5.23;;;3.30;;
7929;SDS011;4010;42.698;23.124;2024-03-22T02:58:04;5.23;;;3.37;;
7929;SDS011;4010;42.698;23.124;2024-03-22T03:00:30;6.00;;;3.50;;
7929;SDS011;4010;42.698;23.124;2024-03-22T03:02:56;3.43;;;2.60;;
7929;SDS011;4010;42.698;23.124;2024-03-22T03:05:22;3.43;;;2.80;;
7929;SDS011;4010;42.698;23.124;2024-03-22T03:07:49;3.70;;;2.97;;
7929;SDS011;4010;42.698;23.124;2024-03-22T03:10:15;3.40;;;2.70;;
7929;SDS011;4010;42.698;23.124;2024-03-22T03:12:42;3.23;;;2.80;;
7929;SDS011;4010;42.698;23.124;2024-03-22T03:15:09;3.97;;;3.17;;
7929;SDS011;4010;42.698;23.124;2024-03-22T03:17:36;4.63;;;2.80;;
7929;SDS011;4010;42.698;23.124;2024-03-22T03:20:02;5.43;;;3.37;;
7929;SDS011;4010;42.698;23.124;2024-03-22T03:22:33;5.77;;;3.10;;
7929;SDS011;4010;42.698;23.124;2024-03-22T03:24:58;5.07;;;3.43;;
7929;SDS011;4010;42.698;23.124;2024-03-22T03:27:25;5.40;;;3.60;;
7929;SDS011;4010;42.698;23.124;2024-03-22T03:29:51;4.63;;;3.20;;
7929;SDS011;4010;42.698;23.124;2024-03-22T03:32:19;8.23;;;3.30;;
7929;SDS011;4010;42.698;23.124;2024-03-22T03:34:45;4.77;;;3.10;;
7929;SDS011;4010;42.698;23.124;2024-03-22T03:37:12;5.97;;;3.13;;
7929;SDS011;4010;42.698;23.124;2024-03-22T03:39:37;7.00;;;2.93;;
7929;SDS011;4010;42.698;23.124;2024-03-22T03:42:05;7.20;;;3.40;;
7929;SDS011;4010;42.698;23.124;2024-03-22T03:44:30;5.83;;;3.30;;
7929;SDS011;4010;42.698;23.124;2024-03-22T03:46:57;6.07;;;3.30;;
7929;SDS011;4010;42.698;23.124;2024-03-22T03:49:25;4.70;;;3.23;;
7929;SDS011;4010;42.698;23.124;2024-03-22T03:51:52;6.07;;;3.47;;
7929;SDS011;4010;42.698;23.124;2024-03-22T03:54:17;5.70;;;3.23;;
7929;SDS011;4010;42.698;23.124;2024-03-22T03:56:44;6.03;;;3.40;;
7929;SDS011;4010;42.698;23.124;2024-03-22T03:59:10;6.23;;;3.70;;
7929;SDS011;4010;42.698;23.124;2024-03-22T04:01:36;5.10;;;3.10;;
7929;SDS011;4010;42.698;23.124;2024-03-22T04:04:02;6.03;;;3.70;;
7929;SDS011;4010;42.698;23.124;2024-03-22T04:06:31;4.15;;;3.28;;
7929;SDS011;4010;42.698;23.124;2024-03-22T04:08:56;4.00;;;3.10;;
7929;SDS011;4010;42.698;23.124;2024-03-22T04:11:23;6.77;;;3.30;;
7929;SDS011;4010;42.698;23.124;2024-03-22T04:13:49;5.43;;;3.43;;
7929;SDS011;4010;42.698;23.124;2024-03-22T04:16:16;5.73;;;3.23;;
7929;SDS011;4010;42.698;23.124;2024-03-22T04:18:41;5.17;;;3.27;;
7929;SDS011;4010;42.698;23.124;2024-03-22T04:21:08;4.37;;;3.10;;
7929;SDS011;4010;42.698;23.124;2024-03-22T04:23:35;4.17;;;3.20;;
7929;SDS011;4010;42.698;23.124;2024-03-22T04:26:02;5.17;;;3.97;;
7929;SDS011;4010;42.698;23.124;2024-03-22T04:28:28;5.73;;;3.80;;
7929;SDS011;4010;42.698;23.124;2024-03-22T04:30:58;4.67;;;3.67;;
7929;SDS011;4010;42.698;23.124;2024-03-22T04:33:25;6.80;;;4.40;;
7929;SDS011;4010;42.698;23.124;2024-03-22T04:35:52;7.97;;;4.53;;
7929;SDS011;4010;42.698;23.124;2024-03-22T04:38:18;7.97;;;4.57;;
7929;SDS011;4010;42.698;23.124;2024-03-22T04:40:46;6.03;;;3.53;;
7929;SDS011;4010;42.698;23.124;2024-03-22T04:43:13;5.77;;;3.60;;
7929;SDS011;4010;42.698;23.124;2024-03-22T04:45:41;6.73;;;3.80;;
7929;SDS011;4010;42.698;23.124;2024-03-22T04:48:08;7.30;;;4.37;;
7929;SDS011;4010;42.698;23.124;2024-03-22T04:50:33;8.30;;;4.50;;
7929;SDS011;4010;42.698;23.124;2024-03-22T04:53:00;7.90;;;6.20;;
7929;SDS011;4010;42.698;23.124;2024-03-22T04:55:26;7.60;;;5.47;;
7929;SDS011;4010;42.698;23.124;2024-03-22T04:57:54;7.53;;;4.80;;
7929;SDS011;4010;42.698;23.124;2024-03-22T05:00:20;4.83;;;4.13;;
7929;SDS011;4010;42.698;23.124;2024-03-22T05:02:47;7.33;;;4.63;;
7929;SDS011;4010;42.698;23.124;2024-03-22T05:05:13;9.10;;;5.07;;
7929;SDS011;4010;42.698;23.124;2024-03-22T05:07:39;12.70;;;5.00;;
7929;SDS011;4010;42.698;23.124;2024-03-22T05:10:05;7.30;;;4.47;;
7929;SDS011;4010;42.698;23.124;2024-03-22T05:12:34;5.53;;;3.93;;
7929;SDS011;4010;42.698;23.124;2024-03-22T05:15:02;8.50;;;4.13;;
7929;SDS011;4010;42.698;23.124;2024-03-22T05:17:27;6.97;;;3.87;;
7929;SDS011;4010;42.698;23.124;2024-03-22T05:19:56;7.37;;;4.10;;
7929;SDS011;4010;42.698;23.124;2024-03-22T05:22:22;4.83;;;3.47;;
7929;SDS011;4010;42.698;23.124;2024-03-22T05:24:49;5.93;;;4.07;;
7929;SDS011;4010;42.698;23.124;2024-03-22T05:27:15;6.70;;;4.30;;
7929;SDS011;4010;42.698;23.124;2024-03-22T05:29:41;9.17;;;4.63;;
7929;SDS011;4010;42.698;23.124;2024-03-22T05:32:08;8.33;;;4.73;;
7929;SDS011;4010;42.698;23.124;2024-03-22T05:34:35;5.17;;;4.47;;
7929;SDS011;4010;42.698;23.124;2024-03-22T05:37:01;5.13;;;4.43;;
7929;SDS011;4010;42.698;23.124;2024-03-22T05:39:28;7.87;;;4.03;;
7929;SDS011;4010;42.698;23.124;2024-03-22T05:41:54;7.77;;;6.10;;
7929;SDS011;4010;42.698;23.124;2024-03-22T05:44:21;5.37;;;4.20;;
7929;SDS011;4010;42.698;23.124;2024-03-22T05:46:47;8.50;;;7.03;;
7929;SDS011;4010;42.698;23.124;2024-03-22T05:49:15;5.90;;;4.60;;
7929;SDS011;4010;42.698;23.124;2024-03-22T05:51:40;10.43;;;6.63;;
7929;SDS011;4010;42.698;23.124;2024-03-22T05:54:07;7.33;;;5.40;;
7929;SDS011;4010;42.698;23.124;2024-03-22T05:56:33;6.43;;;4.87;;
7929;SDS011;4010;42.698;23.124;2024-03-22T05:59:00;6.60;;;5.37;;
7929;SDS011;4010;42.698;23.124;2024-03-22T06:01:25;6.80;;;5.50;;
7929;SDS011;4010;42.698;23.124;2024-03-22T06:03:52;5.97;;;5.07;;
7929;SDS011;4010;42.698;23.124;2024-03-22T06:06:19;6.40;;;4.50;;
7929;SDS011;4010;42.698;23.124;2024-03-22T06:08:50;7.03;;;4.80;;
7929;SDS011;4010;42.698;23.124;2024-03-22T06:11:17;7.53;;;4.83;;
7929;SDS011;4010;42.698;23.124;2024-03-22T06:13:44;5.27;;;4.27;;
7929;SDS011;4010;42.698;23.124;2024-03-22T06:16:10;4.97;;;4.37;;
7929;SDS011;4010;42.698;23.124;2024-03-22T06:18:36;4.90;;;3.27;;
7929;SDS011;4010;42.698;23.124;2024-03-22T06:21:02;6.03;;;3.67;;
7929;SDS011;4010;42.698;23.124;2024-03-22T06:23:31;5.60;;;3.80;;
7929;SDS011;4010;42.698;23.124;2024-03-22T06:25:57;4.13;;;3.73;;
7929;SDS011;4010;42.698;23.124;2024-03-22T06:28:25;7.33;;;4.90;;
7929;SDS011;4010;42.698;23.124;2024-03-22T06:30:54;8.70;;;4.70;;
7929;SDS011;4010;42.698;23.124;2024-03-22T06:33:21;9.63;;;5.33;;
7929;SDS011;4010;42.698;23.124;2024-03-22T06:35:46;7.77;;;4.90;;
7929;SDS011;4010;42.698;23.124;2024-03-22T06:38:13;7.30;;;4.90;;
7929;SDS011;4010;42.698;23.124;2024-03-22T06:40:40;5.17;;;4.37;;
7929;SDS011;4010;42.698;23.124;2024-03-22T06:43:07;5.53;;;4.47;;
7929;SDS011;4010;42.698;23.124;2024-03-22T06:45:34;8.67;;;4.97;;
7929;SDS011;4010;42.698;23.124;2024-03-22T06:48:00;6.70;;;5.03;;
7929;SDS011;4010;42.698;23.124;2024-03-22T06:50:37;7.40;;;5.60;;
7929;SDS011;4010;42.698;23.124;2024-03-22T06:53:03;6.67;;;5.00;;
7929;SDS011;4010;42.698;23.124;2024-03-22T06:55:30;8.20;;;4.60;;
7929;SDS011;4010;42.698;23.124;2024-03-22T06:57:58;6.17;;;4.30;;
7929;SDS011;4010;42.698;23.124;2024-03-22T07:00:23;4.80;;;4.23;;
7929;SDS011;4010;42.698;23.124;2024-03-22T07:02:50;5.83;;;4.47;;
7929;SDS011;4010;42.698;23.124;2024-03-22T07:05:16;5.70;;;4.30;;
7929;SDS011;4010;42.698;23.124;2024-03-22T07:07:43;8.17;;;4.80;;
7929;SDS011;4010;42.698;23.124;2024-03-22T07:10:09;5.50;;;4.37;;
7929;SDS011;4010;42.698;23.124;2024-03-22T07:12:36;7.40;;;4.27;;
7929;SDS011;4010;42.698;23.124;2024-03-22T07:15:03;5.33;;;4.10;;
7929;SDS011;4010;42.698;23.124;2024-03-22T07:17:31;5.30;;;4.17;;
7929;SDS011;4010;42.698;23.124;2024-03-22T07:19:57;8.18;;;5.15;;
7929;SDS011;4010;42.698;23.124;2024-03-22T07:22:23;7.77;;;5.07;;
7929;SDS011;4010;42.698;23.124;2024-03-22T07:24:49;6.40;;;5.07;;
7929;SDS011;4010;42.698;23.124;2024-03-22T07:27:16;6.27;;;5.13;;
7929;SDS011;4010;42.698;23.124;2024-03-22T07:29:42;6.83;;;4.87;;
7929;SDS011;4010;42.698;23.124;2024-03-22T07:32:11;7.63;;;4.50;;
7929;SDS011;4010;42.698;23.124;2024-03-22T07:34:37;7.57;;;4.80;;
7929;SDS011;4010;42.698;23.124;2024-03-22T07:37:04;6.83;;;4.43;;
7929;SDS011;4010;42.698;23.124;2024-03-22T07:39:29;6.57;;;4.63;;
7929;SDS011;4010;42.698;23.124;2024-03-22T07:41:56;6.30;;;4.70;;
7929;SDS011;4010;42.698;23.124;2024-03-22T07:44:21;5.67;;;3.70;;
7929;SDS011;4010;42.698;23.124;2024-03-22T07:46:49;4.93;;;3.67;;
7929;SDS011;4010;42.698;23.124;2024-03-22T07:49:16;6.43;;;4.67;;
7929;SDS011;4010;42.698;23.124;2024-03-22T07:51:43;5.50;;;4.07;;
7929;SDS011;4010;42.698;23.124;2024-03-22T07:54:09;7.50;;;3.90;;
7929;SDS011;4010;42.698;23.124;2024-03-22T07:56:35;5.90;;;4.40;;
7929;SDS011;4010;42.698;23.124;2024-03-22T07:59:01;8.10;;;4.33;;
7929;SDS011;4010;42.698;23.124;2024-03-22T08:01:28;5.50;;;3.63;;
7929;SDS011;4010;42.698;23.124;2024-03-22T08:03:53;6.77;;;3.93;;
7929;SDS011;4010;42.698;23.124;2024-03-22T08:06:21;5.03;;;3.87;;
7929;SDS011;4010;42.698;23.124;2024-03-22T08:08:47;5.13;;;3.83;;
7929;SDS011;4010;42.698;23.124;2024-03-22T08:11:14;6.10;;;4.37;;
7929;SDS011;4010;42.698;23.124;2024-03-22T08:13:40;4.63;;;4.10;;
7929;SDS011;4010;42.698;23.124;2024-03-22T08:16:07;5.47;;;3.80;;
7929;SDS011;4010;42.698;23.124;2024-03-22T08:18:32;5.57;;;4.40;;
7929;SDS011;4010;42.698;23.124;2024-03-22T08:20:59;4.57;;;3.53;;
7929;SDS011;4010;42.698;23.124;2024-03-22T08:23:26;13.43;;;4.97;;
7929;SDS011;4010;42.698;23.124;2024-03-22T08:25:53;5.93;;;4.50;;
7929;SDS011;4010;42.698;23.124;2024-03-22T08:28:18;4.83;;;3.90;;
7929;SDS011;4010;42.698;23.124;2024-03-22T08:30:45;5.77;;;4.17;;
7929;SDS011;4010;42.698;23.124;2024-03-22T08:33:11;7.17;;;4.40;;
7929;SDS011;4010;42.698;23.124;2024-03-22T08:35:37;5.60;;;3.80;;
7929;SDS011;4010;42.698;23.124;2024-03-22T08:38:04;5.13;;;4.17;;
7929;SDS011;4010;42.698;23.124;2024-03-22T08:40:36;5.53;;;4.20;;
7929;SDS011;4010;42.698;23.124;2024-03-22T08:43:02;6.20;;;4.23;;
7929;SDS011;4010;42.698;23.124;2024-03-22T08:45:29;4.90;;;3.80;;
7929;SDS011;4010;42.698;23.124;2024-03-22T08:47:55;6.77;;;4.10;;
7929;SDS011;4010;42.698;23.124;2024-03-22T08:50:22;4.23;;;3.70;;
7929;SDS011;4010;42.698;23.124;2024-03-22T08:52:47;6.03;;;4.20;;
7929;SDS011;4010;42.698;23.124;2024-03-22T08:55:14;6.53;;;3.93;;
7929;SDS011;4010;42.698;23.124;2024-03-22T08:57:41;4.43;;;3.63;;
7929;SDS011;4010;42.698;23.124;2024-03-22T09:00:09;5.03;;;3.70;;
7929;SDS011;4010;42.698;23.124;2024-03-22T09:02:35;7.03;;;4.10;;
7929;SDS011;4010;42.698;23.124;2024-03-22T09:05:03;3.77;;;3.30;;
7929;SDS011;4010;42.698;23.124;2024-03-22T09:07:29;4.70;;;3.40;;
7929;SDS011;4010;42.698;23.124;2024-03-22T09:09:56;4.67;;;3.90;;
7929;SDS011;4010;42.698;23.124;2024-03-22T09:12:22;4.83;;;3.77;;
7929;SDS011;4010;42.698;23.124;2024-03-22T09:14:49;4.43;;;3.47;;
7929;SDS011;4010;42.698;23.124;2024-03-22T09:17:16;4.07;;;3.50;;
7929;SDS011;4010;42.698;23.124;2024-03-22T09:19:42;6.33;;;3.10;;
7929;SDS011;4010;42.698;23.124;2024-03-22T09:22:09;3.37;;;2.90;;
7929;SDS011;4010;42.698;23.124;2024-03-22T09:24:35;3.90;;;2.97;;
7929;SDS011;4010;42.698;23.124;2024-03-22T09:27:01;3.27;;;2.97;;
7929;SDS011;4010;42.698;23.124;2024-03-22T09:29:33;3.37;;;2.90;;
7929;SDS011;4010;42.698;23.124;2024-03-22T09:32:01;3.20;;;2.57;;
7929;SDS011;4010;42.698;23.124;2024-03-22T09:34:27;3.67;;;3.03;;
7929;SDS011;4010;42.698;23.124;2024-03-22T09:36:54;4.90;;;2.90;;
7929;SDS011;4010;42.698;23.124;2024-03-22T09:39:20;4.67;;;2.87;;
7929;SDS011;4010;42.698;23.124;2024-03-22T09:41:46;3.87;;;3.10;;
7929;SDS011;4010;42.698;23.124;2024-03-22T09:44:14;3.17;;;2.87;;
7929;SDS011;4010;42.698;23.124;2024-03-22T09:46:44;3.53;;;2.87;;
7929;SDS011;4010;42.698;23.124;2024-03-22T09:49:12;5.10;;;3.00;;
7929;SDS011;4010;42.698;23.124;2024-03-22T09:51:39;4.27;;;3.20;;
7929;SDS011;4010;42.698;23.124;2024-03-22T09:54:07;5.13;;;3.17;;
7929;SDS011;4010;42.698;23.124;2024-03-22T09:56:35;4.57;;;3.07;;
7929;SDS011;4010;42.698;23.124;2024-03-22T09:59:03;6.13;;;3.23;;
7929;SDS011;4010;42.698;23.124;2024-03-22T10:01:30;3.30;;;2.87;;
7929;SDS011;4010;42.698;23.124;2024-03-22T10:03:57;3.47;;;2.90;;
7929;SDS011;4010;42.698;23.124;2024-03-22T10:06:25;4.57;;;3.33;;
7929;SDS011;4010;42.698;23.124;2024-03-22T10:08:51;3.63;;;3.33;;
7929;SDS011;4010;42.698;23.124;2024-03-22T10:11:18;5.43;;;3.20;;
7929;SDS011;4010;42.698;23.124;2024-03-22T10:13:44;3.50;;;3.17;;
7929;SDS011;4010;42.698;23.124;2024-03-22T10:16:12;3.10;;;2.77;;
7929;SDS011;4010;42.698;23.124;2024-03-22T10:18:37;4.23;;;3.20;;
7929;SDS011;4010;42.698;23.124;2024-03-22T10:21:04;4.87;;;3.20;;
7929;SDS011;4010;42.698;23.124;2024-03-22T10:23:32;3.60;;;2.90;;
7929;SDS011;4010;42.698;23.124;2024-03-22T10:25:59;4.27;;;3.67;;
7929;SDS011;4010;42.698;23.124;2024-03-22T10:28:25;3.37;;;3.07;;
7929;SDS011;4010;42.698;23.124;2024-03-22T10:30:52;4.73;;;3.20;;
7929;SDS011;4010;42.698;23.124;2024-03-22T10:33:18;3.50;;;3.20;;
7929;SDS011;4010;42.698;23.124;2024-03-22T10:35:47;4.53;;;3.83;;
7929;SDS011;4010;42.698;23.124;2024-03-22T10:38:18;6.37;;;3.07;;
7929;SDS011;4010;42.698;23.124;2024-03-22T10:40:46;4.30;;;3.10;;
7929;SDS011;4010;42.698;23.124;2024-03-22T10:43:13;3.17;;;2.87;;
7929;SDS011;4010;42.698;23.124;2024-03-22T10:45:40;5.07;;;3.43;;
7929;SDS011;4010;42.698;23.124;2024-03-22T10:48:08;3.97;;;3.10;;
7929;SDS011;4010;42.698;23.124;2024-03-22T10:50:37;5.33;;;3.40;;
7929;SDS011;4010;42.698;23.124;2024-03-22T10:53:04;4.67;;;3.20;;
7929;SDS011;4010;42.698;23.124;2024-03-22T10:55:34;3.87;;;3.10;;
7929;SDS011;4010;42.698;23.124;2024-03-22T10:58:04;4.60;;;3.13;;
7929;SDS011;4010;42.698;23.124;2024-03-22T11:00:31;4.60;;;3.13;;
7929;SDS011;4010;42.698;23.124;2024-03-22T11:02:58;3.70;;;2.97;;
7929;SDS011;4010;42.698;23.124;2024-03-22T11:05:25;3.27;;;2.83;;
7929;SDS011;4010;42.698;23.124;2024-03-22T11:07:58;3.60;;;3.30;;
7929;SDS011;4010;42.698;23.124;2024-03-22T11:10:26;3.80;;;2.90;;
7929;SDS011;4010;42.698;23.124;2024-03-22T11:12:55;4.03;;;3.30;;
7929;SDS011;4010;42.698;23.124;2024-03-22T11:15:23;3.90;;;3.30;;
7929;SDS011;4010;42.698;23.124;2024-03-22T11:17:49;3.50;;;3.17;;
7929;SDS011;4010;42.698;23.124;2024-03-22T11:20:15;7.73;;;3.80;;
7929;SDS011;4010;42.698;23.124;2024-03-22T11:22:41;4.93;;;3.70;;
7929;SDS011;4010;42.698;23.124;2024-03-22T11:25:08;3.43;;;2.97;;
7929;SDS011;4010;42.698;23.124;2024-03-22T11:27:34;3.93;;;3.00;;
7929;SDS011;4010;42.698;23.124;2024-03-22T11:30:01;3.27;;;2.97;;
7929;SDS011;4010;42.698;23.124;2024-03-22T11:32:29;4.53;;;3.50;;
7929;SDS011;4010;42.698;23.124;2024-03-22T11:34:56;4.00;;;3.20;;
7929;SDS011;4010;42.698;23.124;2024-03-22T11:37:22;4.77;;;3.37;;
7929;SDS011;4010;42.698;23.124;2024-03-22T11:39:49;5.27;;;2.77;;
7929;SDS011;4010;42.698;23.124;2024-03-22T11:42:14;4.37;;;3.30;;
7929;SDS011;4010;42.698;23.124;2024-03-22T11:44:43;3.43;;;3.10;;
7929;SDS011;4010;42.698;23.124;2024-03-22T11:47:09;4.50;;;3.20;;
7929;SDS011;4010;42.698;23.124;2024-03-22T11:49:37;3.53;;;3.23;;
7929;SDS011;4010;42.698;23.124;2024-03-22T11:52:03;3.23;;;2.83;;
7929;SDS011;4010;42.698;23.124;2024-03-22T11:54:30;3.80;;;3.10;;
7929;SDS011;4010;42.698;23.124;2024-03-22T11:56:56;4.13;;;2.80;;
7929;SDS011;4010;42.698;23.124;2024-03-22T11:59:23;3.77;;;3.13;;
7929;SDS011;4010;42.698;23.124;2024-03-22T12:01:48;5.53;;;3.23;;
7929;SDS011;4010;42.698;23.124;2024-03-22T12:04:15;5.47;;;3.20;;
7929;SDS011;4010;42.698;23.124;2024-03-22T12:06:42;4.93;;;3.20;;
7929;SDS011;4010;42.698;23.124;2024-03-22T12:09:10;3.83;;;3.17;;
7929;SDS011;4010;42.698;23.124;2024-03-22T12:11:37;3.47;;;3.17;;
7929;SDS011;4010;42.698;23.124;2024-03-22T12:14:04;4.07;;;2.80;;
7929;SDS011;4010;42.698;23.124;2024-03-22T12:16:30;4.63;;;2.83;;
7929;SDS011;4010;42.698;23.124;2024-03-22T12:18:57;3.07;;;2.67;;
7929;SDS011;4010;42.698;23.124;2024-03-22T12:21:22;5.90;;;3.00;;
7929;SDS011;4010;42.698;23.124;2024-03-22T12:23:50;3.60;;;2.90;;
7929;SDS011;4010;42.698;23.124;2024-03-22T12:26:16;4.00;;;3.33;;
7929;SDS011;4010;42.698;23.124;2024-03-22T12:28:43;3.60;;;3.30;;
7929;SDS011;4010;42.698;23.124;2024-03-22T12:31:09;3.80;;;3.40;;
7929;SDS011;4010;42.698;23.124;2024-03-22T12:33:36;3.33;;;2.97;;
7929;SDS011;4010;42.698;23.124;2024-03-22T12:36:02;3.37;;;2.93;;
7929;SDS011;4010;42.698;23.124;2024-03-22T12:38:29;4.27;;;3.40;;
7929;SDS011;4010;42.698;23.124;2024-03-22T12:40:56;5.83;;;2.87;;
7929;SDS011;4010;42.698;23.124;2024-03-22T12:43:23;4.07;;;3.30;;
7929;SDS011;4010;42.698;23.124;2024-03-22T12:45:49;6.53;;;2.83;;
7929;SDS011;4010;42.698;23.124;2024-03-22T12:48:16;4.00;;;3.13;;
7929;SDS011;4010;42.698;23.124;2024-03-22T12:50:42;5.53;;;3.00;;
7929;SDS011;4010;42.698;23.124;2024-03-22T12:53:09;4.37;;;2.77;;
7929;SDS011;4010;42.698;23.124;2024-03-22T12:55:34;3.27;;;2.97;;
7929;SDS011;4010;42.698;23.124;2024-03-22T12:58:03;3.77;;;2.97;;
7929;SDS011;4010;42.698;23.124;2024-03-22T13:00:29;3.13;;;2.87;;
7929;SDS011;4010;42.698;23.124;2024-03-22T13:02:58;3.23;;;2.83;;
7929;SDS011;4010;42.698;23.124;2024-03-22T13:05:25;6.63;;;3.13;;
7929;SDS011;4010;42.698;23.124;2024-03-22T13:07:52;3.70;;;3.20;;
7929;SDS011;4010;42.698;23.124;2024-03-22T13:10:18;2.90;;;2.60;;
7929;SDS011;4010;42.698;23.124;2024-03-22T13:12:44;3.23;;;2.93;;
7929;SDS011;4010;42.698;23.124;2024-03-22T13:15:12;4.73;;;3.07;;
7929;SDS011;4010;42.698;23.124;2024-03-22T13:17:39;3.37;;;3.00;;
7929;SDS011;4010;42.698;23.124;2024-03-22T13:20:06;4.10;;;3.00;;
7929;SDS011;4010;42.698;23.124;2024-03-22T13:22:35;3.37;;;2.87;;
7929;SDS011;4010;42.698;23.124;2024-03-22T13:25:01;3.30;;;2.97;;
7929;SDS011;4010;42.698;23.124;2024-03-22T13:27:31;2.90;;;2.43;;
7929;SDS011;4010;42.698;23.124;2024-03-22T13:29:57;3.23;;;2.40;;
7929;SDS011;4010;42.698;23.124;2024-03-22T13:32:25;6.47;;;2.57;;
7929;SDS011;4010;42.698;23.124;2024-03-22T13:34:50;2.80;;;2.57;;
7929;SDS011;4010;42.698;23.124;2024-03-22T13:37:17;3.27;;;2.90;;
7929;SDS011;4010;42.698;23.124;2024-03-22T13:39:43;3.40;;;2.83;;
7929;SDS011;4010;42.698;23.124;2024-03-22T13:42:13;5.23;;;2.73;;
7929;SDS011;4010;42.698;23.124;2024-03-22T13:44:39;3.30;;;2.70;;
7929;SDS011;4010;42.698;23.124;2024-03-22T14:06:34;3.63;;;3.00;;
7929;SDS011;4010;42.698;23.124;2024-03-22T15:12:43;3.50;;;2.73;;
7929;SDS011;4010;42.698;23.124;2024-03-22T15:15:09;3.40;;;2.83;;
7929;SDS011;4010;42.698;23.124;2024-03-22T15:17:35;6.30;;;2.87;;
7929;SDS011;4010;42.698;23.124;2024-03-22T15:20:02;3.87;;;2.90;;
7929;SDS011;4010;42.698;23.124;2024-03-22T15:22:29;3.80;;;3.17;;
7929;SDS011;4010;42.698;23.124;2024-03-22T15:24:55;5.50;;;3.60;;
7929;SDS011;4010;42.698;23.124;2024-03-22T15:27:21;5.60;;;3.50;;
7929;SDS011;4010;42.698;23.124;2024-03-22T15:29:48;3.10;;;2.80;;
7929;SDS011;4010;42.698;23.124;2024-03-22T15:32:15;4.07;;;3.00;;
7929;SDS011;4010;42.698;23.124;2024-03-22T15:34:41;2.33;;;2.10;;
7929;SDS011;4010;42.698;23.124;2024-03-22T15:37:07;4.67;;;3.20;;
7929;SDS011;4010;42.698;23.124;2024-03-22T15:39:33;7.83;;;4.60;;
7929;SDS011;4010;42.698;23.124;2024-03-22T15:42:00;4.63;;;3.33;;
7929;SDS011;4010;42.698;23.124;2024-03-22T15:44:25;7.27;;;4.60;;
7929;SDS011;4010;42.698;23.124;2024-03-22T15:46:54;3.73;;;3.40;;
7929;SDS011;4010;42.698;23.124;2024-03-22T15:49:25;5.20;;;4.63;;
7929;SDS011;4010;42.698;23.124;2024-03-22T15:51:51;4.13;;;3.50;;
7929;SDS011;4010;42.698;23.124;2024-03-22T15:54:17;4.27;;;2.87;;
7929;SDS011;4010;42.698;23.124;2024-03-22T15:56:44;2.70;;;2.47;;
7929;SDS011;4010;42.698;23.124;2024-03-22T15:59:10;3.17;;;2.73;;
7929;SDS011;4010;42.698;23.124;2024-03-22T16:01:37;3.00;;;2.50;;
7929;SDS011;4010;42.698;23.124;2024-03-22T16:04:04;5.40;;;2.60;;
7929;SDS011;4010;42.698;23.124;2024-03-22T16:06:31;3.53;;;2.60;;
7929;SDS011;4010;42.698;23.124;2024-03-22T16:08:57;4.03;;;2.50;;
7929;SDS011;4010;42.698;23.124;2024-03-22T16:11:24;4.40;;;2.70;;
7929;SDS011;4010;42.698;23.124;2024-03-22T16:13:50;2.97;;;2.53;;
7929;SDS011;4010;42.698;23.124;2024-03-22T16:16:17;2.80;;;2.50;;
7929;SDS011;4010;42.698;23.124;2024-03-22T16:18:42;5.93;;;2.50;;
7929;SDS011;4010;42.698;23.124;2024-03-22T16:21:10;4.13;;;2.70;;